SWR8AQ LSZH-EDDV
Flight info
| Callsign | SWR8AQ |
|---|---|
| Flight time | 1h 1m |
| Altitude | 34000 |
| Route | DEGES Z1 ETAGO DCT HAREM/N0418F330 DCT LOHRE DCT MASEK/N0421F340 Z99 ELNAT P605 WERRA WERRA1X |
| Aircraft | A320/M-SDE2E3FGIJ1RWXY/LB1 |
Departure
| Time | 2026-04-26 12:21 |
|---|---|
| Airport | Zürich Airport (LSZH) |
Arrival
| Time | 2026-04-26 13:22 |
|---|---|
| Airport | Hannover Airport (EDDV) |
| Time | Latitude | Longitude | Altitude | Speed | Heading |
|---|---|---|---|---|---|
| 2026-04-26 11:42 | 47.45434 | 8.55691 | 1413 ft | 0 kts | 186° |
| 2026-04-26 12:08 | 47.45436 | 8.55692 | 1407 ft | 3 kts | 186° |
| 2026-04-26 12:08 | 47.45463 | 8.55694 | 1407 ft | 4 kts | 175° |
| 2026-04-26 12:09 | 47.45489 | 8.55687 | 1411 ft | 4 kts | 159° |
| 2026-04-26 12:09 | 47.45510 | 8.55668 | 1409 ft | 4 kts | 121° |
| 2026-04-26 12:09 | 47.45515 | 8.55651 | 1409 ft | 0 kts | 96° |
| 2026-04-26 12:12 | 47.45513 | 8.55683 | 1407 ft | 7 kts | 96° |
| 2026-04-26 12:12 | 47.45509 | 8.55738 | 1407 ft | 9 kts | 96° |
| 2026-04-26 12:13 | 47.45498 | 8.55890 | 1407 ft | 13 kts | 96° |
| 2026-04-26 12:13 | 47.45488 | 8.56036 | 1412 ft | 15 kts | 96° |
| 2026-04-26 12:13 | 47.45482 | 8.56200 | 1408 ft | 17 kts | 78° |
| 2026-04-26 12:13 | 47.45544 | 8.56334 | 1413 ft | 15 kts | 51° |
| 2026-04-26 12:14 | 47.45592 | 8.56470 | 1416 ft | 16 kts | 85° |
| 2026-04-26 12:14 | 47.45584 | 8.56628 | 1417 ft | 15 kts | 96° |
| 2026-04-26 12:14 | 47.45573 | 8.56786 | 1422 ft | 16 kts | 96° |
| 2026-04-26 12:14 | 47.45564 | 8.56918 | 1421 ft | 0 kts | 95° |
| 2026-04-26 12:19 | 47.45563 | 8.56926 | 1420 ft | 5 kts | 95° |
| 2026-04-26 12:19 | 47.45583 | 8.57011 | 1423 ft | 9 kts | 36° |
| 2026-04-26 12:19 | 47.45631 | 8.57023 | 1425 ft | 5 kts | 2° |
| 2026-04-26 12:20 | 47.45663 | 8.56995 | 1425 ft | 8 kts | 297° |
| 2026-04-26 12:20 | 47.45670 | 8.56920 | 1423 ft | 10 kts | 275° |
| 2026-04-26 12:20 | 47.45698 | 8.56515 | 1416 ft | 79 kts | 276° |
| 2026-04-26 12:20 | 47.45780 | 8.55358 | 1400 ft | 145 kts | 276° |
| 2026-04-26 12:21 | 47.45914 | 8.53651 | 1627 ft | 175 kts | 278° |
| 2026-04-26 12:21 | 47.46050 | 8.51873 | 2434 ft | 174 kts | 278° |
| 2026-04-26 12:21 | 47.46176 | 8.50063 | 3052 ft | 185 kts | 281° |
| 2026-04-26 12:21 | 47.46204 | 8.48045 | 3453 ft | 211 kts | 258° |
| 2026-04-26 12:22 | 47.45559 | 8.45969 | 3843 ft | 233 kts | 243° |
| 2026-04-26 12:22 | 47.44760 | 8.43857 | 4619 ft | 238 kts | 240° |
| 2026-04-26 12:22 | 47.43953 | 8.41760 | 5021 ft | 240 kts | 240° |
| 2026-04-26 12:22 | 47.43148 | 8.39614 | 5951 ft | 237 kts | 240° |
| 2026-04-26 12:23 | 47.42134 | 8.37723 | 6855 ft | 236 kts | 212° |
| 2026-04-26 12:23 | 47.40616 | 8.36922 | 7727 ft | 235 kts | 180° |
| 2026-04-26 12:23 | 47.39045 | 8.37465 | 8509 ft | 237 kts | 147° |
| 2026-04-26 12:23 | 47.37938 | 8.39248 | 9266 ft | 241 kts | 113° |
| 2026-04-26 12:24 | 47.37720 | 8.41679 | 10034 ft | 246 kts | 77° |
| 2026-04-26 12:24 | 47.38497 | 8.43898 | 10741 ft | 249 kts | 46° |
| 2026-04-26 12:24 | 47.39708 | 8.45708 | 11478 ft | 252 kts | 44° |
| 2026-04-26 12:25 | 47.42223 | 8.49421 | 13011 ft | 259 kts | 44° |
| 2026-04-26 12:25 | 47.43508 | 8.51315 | 13814 ft | 263 kts | 44° |
| 2026-04-26 12:25 | 47.44795 | 8.53258 | 14510 ft | 267 kts | 46° |
| 2026-04-26 12:25 | 47.45896 | 8.55499 | 15117 ft | 277 kts | 64° |
| 2026-04-26 12:26 | 47.46423 | 8.58356 | 15350 ft | 301 kts | 83° |
| 2026-04-26 12:26 | 47.46542 | 8.61564 | 15550 ft | 325 kts | 89° |
| 2026-04-26 12:26 | 47.46499 | 8.64973 | 15718 ft | 348 kts | 91° |
| 2026-04-26 12:26 | 47.46431 | 8.68642 | 16041 ft | 364 kts | 90° |
| 2026-04-26 12:27 | 47.46413 | 8.72416 | 16594 ft | 371 kts | 89° |
| 2026-04-26 12:27 | 47.46467 | 8.76249 | 17242 ft | 375 kts | 87° |
| 2026-04-26 12:27 | 47.46571 | 8.80121 | 17958 ft | 379 kts | 88° |
| 2026-04-26 12:27 | 47.46416 | 8.84029 | 18597 ft | 384 kts | 98° |
| 2026-04-26 12:28 | 47.45904 | 8.87923 | 19179 ft | 387 kts | 101° |
| 2026-04-26 12:28 | 47.45348 | 8.91826 | 19776 ft | 390 kts | 102° |
| 2026-04-26 12:28 | 47.44780 | 8.95760 | 20366 ft | 394 kts | 102° |
| 2026-04-26 12:28 | 47.44211 | 8.99691 | 20945 ft | 397 kts | 102° |
| 2026-04-26 12:29 | 47.43632 | 9.03698 | 21548 ft | 400 kts | 102° |
| 2026-04-26 12:29 | 47.43050 | 9.07731 | 22120 ft | 404 kts | 102° |
| 2026-04-26 12:29 | 47.42142 | 9.15980 | 23266 ft | 412 kts | 91° |
| 2026-04-26 12:30 | 47.42354 | 9.20209 | 23819 ft | 416 kts | 80° |
| 2026-04-26 12:30 | 47.43104 | 9.24345 | 24281 ft | 419 kts | 69° |
| 2026-04-26 12:30 | 47.44363 | 9.28230 | 24723 ft | 422 kts | 59° |
| 2026-04-26 12:31 | 47.47511 | 9.35596 | 25615 ft | 426 kts | 49° |
| 2026-04-26 12:31 | 47.49563 | 9.38680 | 26035 ft | 427 kts | 38° |
| 2026-04-26 12:31 | 47.51979 | 9.41226 | 26445 ft | 428 kts | 28° |
| 2026-04-26 12:31 | 47.54666 | 9.43110 | 26860 ft | 427 kts | 17° |
| 2026-04-26 12:32 | 47.57502 | 9.44442 | 27259 ft | 428 kts | 11° |
| 2026-04-26 12:32 | 47.60430 | 9.45191 | 27657 ft | 427 kts | 2° |
| 2026-04-26 12:32 | 47.66389 | 9.45548 | 28426 ft | 432 kts | 359° |
| 2026-04-26 12:33 | 47.69394 | 9.45701 | 28801 ft | 434 kts | 359° |
| 2026-04-26 12:33 | 47.72426 | 9.45860 | 29180 ft | 437 kts | 359° |
| 2026-04-26 12:33 | 47.75431 | 9.46022 | 29553 ft | 439 kts | 359° |
| 2026-04-26 12:33 | 47.78497 | 9.46187 | 29908 ft | 442 kts | 359° |
| 2026-04-26 12:34 | 47.81573 | 9.46334 | 30257 ft | 444 kts | 358° |
| 2026-04-26 12:34 | 47.84669 | 9.46394 | 30576 ft | 446 kts | 356° |
| 2026-04-26 12:34 | 47.87784 | 9.46382 | 30831 ft | 448 kts | 356° |
| 2026-04-26 12:34 | 47.90909 | 9.46333 | 31113 ft | 451 kts | 355° |
| 2026-04-26 12:35 | 47.94051 | 9.46278 | 31397 ft | 452 kts | 356° |
| 2026-04-26 12:35 | 47.97165 | 9.46232 | 31663 ft | 454 kts | 356° |
| 2026-04-26 12:35 | 48.00329 | 9.46203 | 31948 ft | 455 kts | 356° |
| 2026-04-26 12:35 | 48.03491 | 9.46191 | 32344 ft | 454 kts | 356° |
| 2026-04-26 12:36 | 48.06648 | 9.46191 | 32748 ft | 453 kts | 356° |
| 2026-04-26 12:36 | 48.09790 | 9.46195 | 33140 ft | 451 kts | 356° |
| 2026-04-26 12:36 | 48.12929 | 9.46198 | 33534 ft | 450 kts | 356° |
| 2026-04-26 12:36 | 48.16060 | 9.46198 | 33924 ft | 449 kts | 356° |
| 2026-04-26 12:37 | 48.19180 | 9.46196 | 34178 ft | 449 kts | 356° |
| 2026-04-26 12:37 | 48.22227 | 9.46200 | 34220 ft | 438 kts | 356° |
| 2026-04-26 12:37 | 48.25252 | 9.46212 | 34210 ft | 433 kts | 356° |
| 2026-04-26 12:38 | 48.31232 | 9.46222 | 34217 ft | 427 kts | 356° |
| 2026-04-26 12:38 | 48.37168 | 9.46214 | 34219 ft | 426 kts | 356° |
| 2026-04-26 12:39 | 48.43091 | 9.46209 | 34223 ft | 426 kts | 356° |
| 2026-04-26 12:39 | 48.48979 | 9.46217 | 34226 ft | 426 kts | 356° |
| 2026-04-26 12:40 | 48.54904 | 9.46216 | 34223 ft | 425 kts | 356° |
| 2026-04-26 12:40 | 48.60819 | 9.46153 | 34225 ft | 425 kts | 356° |
| 2026-04-26 12:41 | 48.66736 | 9.46065 | 34225 ft | 425 kts | 356° |
| 2026-04-26 12:41 | 48.72653 | 9.45992 | 34233 ft | 425 kts | 356° |
| 2026-04-26 12:42 | 48.78520 | 9.45804 | 34235 ft | 424 kts | 355° |
| 2026-04-26 12:42 | 48.84418 | 9.45462 | 34235 ft | 424 kts | 354° |
| 2026-04-26 12:43 | 48.90311 | 9.45115 | 34241 ft | 424 kts | 354° |
| 2026-04-26 12:43 | 48.96212 | 9.44803 | 34251 ft | 424 kts | 355° |
| 2026-04-26 12:44 | 49.02063 | 9.44513 | 34248 ft | 424 kts | 355° |
| 2026-04-26 12:44 | 49.07960 | 9.44215 | 34248 ft | 424 kts | 355° |
| 2026-04-26 12:45 | 49.13854 | 9.43915 | 34250 ft | 424 kts | 355° |
| 2026-04-26 12:45 | 49.19750 | 9.43612 | 34251 ft | 424 kts | 355° |
| 2026-04-26 12:46 | 49.25608 | 9.43309 | 34248 ft | 424 kts | 355° |
| 2026-04-26 12:46 | 49.31506 | 9.43016 | 34248 ft | 424 kts | 355° |
| 2026-04-26 12:47 | 49.37398 | 9.42714 | 34266 ft | 424 kts | 355° |
| 2026-04-26 12:47 | 49.43298 | 9.42409 | 34264 ft | 424 kts | 355° |
| 2026-04-26 12:48 | 49.49191 | 9.42106 | 34270 ft | 424 kts | 355° |
| 2026-04-26 12:48 | 49.55037 | 9.41803 | 34263 ft | 423 kts | 355° |
| 2026-04-26 12:49 | 49.60919 | 9.41497 | 34278 ft | 423 kts | 356° |
| 2026-04-26 12:49 | 49.66819 | 9.42234 | 34332 ft | 429 kts | 2° |
| 2026-04-26 12:49 | 49.69790 | 9.42713 | 34612 ft | 430 kts | 2° |
| 2026-04-26 12:50 | 49.72766 | 9.43190 | 34939 ft | 430 kts | 2° |
| 2026-04-26 12:50 | 49.75738 | 9.43661 | 35213 ft | 430 kts | 2° |
| 2026-04-26 12:50 | 49.78674 | 9.44127 | 35268 ft | 429 kts | 2° |
| 2026-04-26 12:51 | 49.84605 | 9.45078 | 35271 ft | 428 kts | 2° |
| 2026-04-26 12:51 | 49.90536 | 9.46031 | 35273 ft | 428 kts | 2° |
| 2026-04-26 12:52 | 49.96460 | 9.46986 | 35270 ft | 428 kts | 2° |
| 2026-04-26 12:52 | 50.02389 | 9.47941 | 35272 ft | 428 kts | 2° |
| 2026-04-26 12:53 | 50.08274 | 9.48888 | 35287 ft | 428 kts | 3° |
| 2026-04-26 12:53 | 50.14210 | 9.49874 | 35285 ft | 428 kts | 3° |
| 2026-04-26 12:54 | 50.20134 | 9.50878 | 35277 ft | 428 kts | 3° |
| 2026-04-26 12:54 | 50.26058 | 9.51876 | 35287 ft | 428 kts | 3° |
| 2026-04-26 12:55 | 50.31942 | 9.52865 | 35284 ft | 428 kts | 3° |
| 2026-04-26 12:55 | 50.37869 | 9.53859 | 35281 ft | 428 kts | 3° |
| 2026-04-26 12:56 | 50.43796 | 9.54865 | 35278 ft | 428 kts | 3° |
| 2026-04-26 12:56 | 50.49718 | 9.55877 | 35295 ft | 428 kts | 4° |
| 2026-04-26 12:57 | 50.55608 | 9.56878 | 35043 ft | 428 kts | 4° |
| 2026-04-26 12:57 | 50.58567 | 9.57381 | 34805 ft | 427 kts | 4° |
| 2026-04-26 12:57 | 50.61516 | 9.57886 | 34565 ft | 426 kts | 4° |
| 2026-04-26 12:58 | 50.67380 | 9.58893 | 34055 ft | 422 kts | 4° |
| 2026-04-26 12:58 | 50.70296 | 9.59393 | 33782 ft | 421 kts | 4° |
| 2026-04-26 12:58 | 50.73198 | 9.59888 | 33508 ft | 419 kts | 4° |
| 2026-04-26 12:58 | 50.76097 | 9.60405 | 33236 ft | 418 kts | 4° |
| 2026-04-26 12:59 | 50.78945 | 9.60945 | 32972 ft | 417 kts | 4° |
| 2026-04-26 12:59 | 50.81820 | 9.61512 | 32705 ft | 416 kts | 5° |
| 2026-04-26 12:59 | 50.84686 | 9.62084 | 32439 ft | 415 kts | 5° |
| 2026-04-26 12:59 | 50.87543 | 9.62653 | 32179 ft | 413 kts | 5° |
| 2026-04-26 13:00 | 50.90396 | 9.63218 | 31922 ft | 412 kts | 5° |
| 2026-04-26 13:00 | 50.93239 | 9.63778 | 31666 ft | 411 kts | 4° |
| 2026-04-26 13:00 | 50.96072 | 9.64328 | 31408 ft | 410 kts | 5° |
| 2026-04-26 13:00 | 50.98896 | 9.64874 | 31169 ft | 408 kts | 4° |
| 2026-04-26 13:01 | 51.01712 | 9.65416 | 30920 ft | 407 kts | 4° |
| 2026-04-26 13:01 | 51.04479 | 9.65953 | 30679 ft | 406 kts | 5° |
| 2026-04-26 13:01 | 51.07277 | 9.66500 | 30432 ft | 405 kts | 5° |
| 2026-04-26 13:01 | 51.10060 | 9.67050 | 30094 ft | 400 kts | 5° |
| 2026-04-26 13:02 | 51.12811 | 9.67595 | 29624 ft | 396 kts | 5° |
| 2026-04-26 13:02 | 51.15537 | 9.68135 | 29163 ft | 393 kts | 5° |
| 2026-04-26 13:02 | 51.18238 | 9.68667 | 28725 ft | 389 kts | 4° |
| 2026-04-26 13:02 | 51.20911 | 9.69191 | 28276 ft | 386 kts | 4° |
| 2026-04-26 13:03 | 51.23566 | 9.69669 | 27829 ft | 382 kts | 3° |
| 2026-04-26 13:03 | 51.26198 | 9.70094 | 27391 ft | 379 kts | 3° |
| 2026-04-26 13:03 | 51.28778 | 9.70491 | 26959 ft | 376 kts | 3° |
| 2026-04-26 13:03 | 51.31369 | 9.70892 | 26515 ft | 373 kts | 3° |
| 2026-04-26 13:04 | 51.33944 | 9.71299 | 26096 ft | 370 kts | 3° |
| 2026-04-26 13:04 | 51.36497 | 9.71708 | 25627 ft | 369 kts | 3° |
| 2026-04-26 13:04 | 51.39044 | 9.72116 | 25167 ft | 367 kts | 3° |
| 2026-04-26 13:04 | 51.41580 | 9.72529 | 24704 ft | 365 kts | 3° |
| 2026-04-26 13:05 | 51.44107 | 9.72941 | 24222 ft | 365 kts | 3° |
| 2026-04-26 13:05 | 51.46623 | 9.73351 | 23715 ft | 364 kts | 3° |
| 2026-04-26 13:05 | 51.49139 | 9.73774 | 23204 ft | 362 kts | 4° |
| 2026-04-26 13:05 | 51.51600 | 9.74224 | 22737 ft | 360 kts | 4° |
| 2026-04-26 13:06 | 51.54073 | 9.74700 | 22254 ft | 357 kts | 4° |
| 2026-04-26 13:06 | 51.56539 | 9.75180 | 21788 ft | 355 kts | 4° |
| 2026-04-26 13:06 | 51.58984 | 9.75654 | 21331 ft | 353 kts | 4° |
| 2026-04-26 13:06 | 51.61420 | 9.76123 | 20880 ft | 351 kts | 4° |
| 2026-04-26 13:07 | 51.63842 | 9.76588 | 20429 ft | 350 kts | 4° |
| 2026-04-26 13:07 | 51.66253 | 9.77052 | 19980 ft | 349 kts | 4° |
| 2026-04-26 13:07 | 51.68658 | 9.77512 | 19531 ft | 347 kts | 4° |
| 2026-04-26 13:07 | 51.71022 | 9.77959 | 19089 ft | 346 kts | 4° |
| 2026-04-26 13:08 | 51.73414 | 9.78414 | 18643 ft | 346 kts | 4° |
| 2026-04-26 13:08 | 51.75799 | 9.78869 | 18161 ft | 344 kts | 4° |
| 2026-04-26 13:08 | 51.78169 | 9.79320 | 17727 ft | 342 kts | 4° |
| 2026-04-26 13:08 | 51.80524 | 9.79765 | 17295 ft | 339 kts | 4° |
| 2026-04-26 13:09 | 51.82857 | 9.80208 | 16867 ft | 337 kts | 4° |
| 2026-04-26 13:09 | 51.85180 | 9.80650 | 16445 ft | 335 kts | 4° |
| 2026-04-26 13:09 | 51.87492 | 9.81094 | 16035 ft | 333 kts | 4° |
| 2026-04-26 13:09 | 51.89757 | 9.81532 | 15620 ft | 332 kts | 4° |
| 2026-04-26 13:10 | 51.92043 | 9.81978 | 15205 ft | 330 kts | 4° |
| 2026-04-26 13:10 | 51.94319 | 9.82422 | 14789 ft | 329 kts | 4° |
| 2026-04-26 13:10 | 51.96585 | 9.82861 | 14371 ft | 328 kts | 4° |
| 2026-04-26 13:10 | 51.98844 | 9.83300 | 13945 ft | 326 kts | 4° |
| 2026-04-26 13:11 | 52.01087 | 9.83737 | 13511 ft | 324 kts | 4° |
| 2026-04-26 13:11 | 52.03309 | 9.84173 | 13098 ft | 320 kts | 4° |
| 2026-04-26 13:11 | 52.05514 | 9.84602 | 12680 ft | 317 kts | 4° |
| 2026-04-26 13:11 | 52.07668 | 9.85019 | 12267 ft | 315 kts | 4° |
| 2026-04-26 13:12 | 52.09836 | 9.85443 | 11848 ft | 313 kts | 4° |
| 2026-04-26 13:12 | 52.11970 | 9.85863 | 11661 ft | 303 kts | 4° |
| 2026-04-26 13:12 | 52.14028 | 9.86270 | 11480 ft | 294 kts | 4° |
| 2026-04-26 13:12 | 52.16042 | 9.86668 | 11158 ft | 290 kts | 4° |
| 2026-04-26 13:13 | 52.18043 | 9.87056 | 10801 ft | 288 kts | 4° |
| 2026-04-26 13:13 | 52.20015 | 9.87435 | 10287 ft | 283 kts | 4° |
| 2026-04-26 13:13 | 52.21963 | 9.87807 | 9563 ft | 281 kts | 4° |
| 2026-04-26 13:13 | 52.23880 | 9.88294 | 8939 ft | 276 kts | 13° |
| 2026-04-26 13:14 | 52.25633 | 9.89478 | 8417 ft | 280 kts | 28° |
| 2026-04-26 13:14 | 52.27198 | 9.91443 | 7979 ft | 283 kts | 40° |
| 2026-04-26 13:14 | 52.28654 | 9.93563 | 7593 ft | 277 kts | 39° |
| 2026-04-26 13:14 | 52.30095 | 9.95630 | 6915 ft | 274 kts | 40° |
| 2026-04-26 13:15 | 52.31525 | 9.97669 | 6417 ft | 272 kts | 40° |
| 2026-04-26 13:15 | 52.32910 | 9.99643 | 6065 ft | 258 kts | 40° |
| 2026-04-26 13:15 | 52.34253 | 10.01556 | 5541 ft | 254 kts | 40° |
| 2026-04-26 13:15 | 52.35137 | 10.02806 | 5242 ft | 252 kts | 38° |
| 2026-04-26 13:16 | 52.37121 | 10.04625 | 4703 ft | 239 kts | 18° |
| 2026-04-26 13:16 | 52.38714 | 10.05204 | 4634 ft | 239 kts | 5° |
| 2026-04-26 13:16 | 52.40377 | 10.05353 | 4544 ft | 239 kts | 3° |
| 2026-04-26 13:16 | 52.42027 | 10.05486 | 4436 ft | 232 kts | 2° |
| 2026-04-26 13:17 | 52.44454 | 10.03149 | 4102 ft | 213 kts | 285° |
| 2026-04-26 13:17 | 52.44556 | 10.00739 | 3809 ft | 213 kts | 271° |
| 2026-04-26 13:18 | 52.44674 | 9.95948 | 3229 ft | 204 kts | 272° |
| 2026-04-26 13:18 | 52.44742 | 9.93715 | 2991 ft | 193 kts | 272° |
| 2026-04-26 13:18 | 52.44869 | 9.89492 | 2450 ft | 180 kts | 272° |
| 2026-04-26 13:19 | 52.44929 | 9.87475 | 2210 ft | 176 kts | 272° |
| 2026-04-26 13:19 | 52.44987 | 9.85502 | 1959 ft | 169 kts | 272° |
| 2026-04-26 13:19 | 52.45043 | 9.83605 | 1740 ft | 165 kts | 272° |
| 2026-04-26 13:19 | 52.45097 | 9.81758 | 1516 ft | 157 kts | 272° |
| 2026-04-26 13:20 | 52.45147 | 9.80041 | 1327 ft | 144 kts | 272° |
| 2026-04-26 13:20 | 52.45193 | 9.78463 | 1121 ft | 138 kts | 272° |
| 2026-04-26 13:20 | 52.45238 | 9.76908 | 928 ft | 135 kts | 272° |
| 2026-04-26 13:20 | 52.45282 | 9.75385 | 746 ft | 133 kts | 272° |
| 2026-04-26 13:21 | 52.45325 | 9.73882 | 575 ft | 131 kts | 272° |
| 2026-04-26 13:21 | 52.45354 | 9.72895 | 457 ft | 130 kts | 272° |
| 2026-04-26 13:21 | 52.45407 | 9.70928 | 216 ft | 128 kts | 272° |
| 2026-04-26 13:21 | 52.45442 | 9.69638 | 183 ft | 89 kts | 273° |
| 2026-04-26 13:22 | 52.45464 | 9.68883 | 184 ft | 51 kts | 272° |
| 2026-04-26 13:22 | 52.45479 | 9.68380 | 181 ft | 26 kts | 272° |
| 2026-04-26 13:22 | 52.45538 | 9.68253 | 180 ft | 13 kts | 360° |
| 2026-04-26 13:22 | 52.45628 | 9.68273 | 179 ft | 12 kts | 37° |
| 2026-04-26 13:23 | 52.45642 | 9.68394 | 179 ft | 11 kts | 95° |
| 2026-04-26 13:23 | 52.45638 | 9.68509 | 179 ft | 10 kts | 92° |
| 2026-04-26 13:23 | 52.45636 | 9.68629 | 179 ft | 13 kts | 92° |
| 2026-04-26 13:23 | 52.45631 | 9.68807 | 179 ft | 16 kts | 92° |
| 2026-04-26 13:24 | 52.45626 | 9.68979 | 179 ft | 15 kts | 92° |
| 2026-04-26 13:24 | 52.45641 | 9.69128 | 179 ft | 13 kts | 43° |
| 2026-04-26 13:24 | 52.45723 | 9.69154 | 178 ft | 11 kts | 17° |
| 2026-04-26 13:24 | 52.45760 | 9.69250 | 178 ft | 10 kts | 87° |
| 2026-04-26 13:25 | 52.45784 | 9.69341 | 179 ft | 9 kts | 33° |
| 2026-04-26 13:25 | 52.45828 | 9.69383 | 179 ft | 5 kts | 30° |
| 2026-04-26 13:25 | 52.45839 | 9.69393 | 179 ft | 0 kts | 30° |